Terminal Aerodrome Forecast
Issued by NWS

Home | Current Version | Previous Version | Text Only | Print | Product List | Glossary On
Versions: 1 2 3 4 5 6 7 8 9 10 11 12 13 14 15
000
FTUS46 KSTO 201100
TAFMHR
TAF
KMHR 201123Z 2012/2112 25005KT P6SM SCT200
     FM201500 17006KT P6SM SCT050 BKN100
     FM202100 24010G20KT P6SM -RA SCT030 OVC060
     FM210200 22010KT P6SM OVC100
     FM210600 17008KT P6SM SCT100 BKN250=

USA.gov is the U.S. government's official web portal to all federal, state and local government web resources and services.